Westmount, Canada
Current Conditions -  °F | °C
As of 9:00 PM on Saturday 25 Oct 2014 (Local Time) from CYUL Reporting Station
Broken Clouds Broken Clouds  
Wind Chill: 54°   Ceiling: 6800
Heat Index: 54°   Visibility: 15mi
Dew Point: 50°   Wind: 12mph
Humidity: 88%   Direction: 240°WSW
Pressure: 29.43"   Gusts: NA
Location:  45.48°N, 73.6°W
Report Text: CYUL 260100Z 24010KT 15SM FEW016 FEW032 BKN068 12/10 A2943 RMK SF1SC2AC4 SF TR SLP967 DENSITY ALT 300FT
Loading
Personal Weather Stations






























Interactive Weather Map New forecast layout! Learn more

10-Day Weather Forecast

Advertisements
Track Severe Weather on mobile